sensor_id;sensor_type;location;lat;lon;timestamp;pressure;altitude;pressure_sealevel;temperature;humidity
47054;BME280;32811;52.382;5.270;2022-08-21T00:01:34;101730.97;;;13.95;100.00
47054;BME280;32811;52.382;5.270;2022-08-21T00:04:08;101732.75;;;13.98;100.00
47054;BME280;32811;52.382;5.270;2022-08-21T00:06:36;101722.34;;;13.96;100.00
47054;BME280;32811;52.382;5.270;2022-08-21T00:09:06;101721.47;;;13.94;100.00
47054;BME280;32811;52.382;5.270;2022-08-21T00:11:34;101723.22;;;13.94;100.00
47054;BME280;32811;52.382;5.270;2022-08-21T00:14:02;101722.31;;;13.93;100.00
47054;BME280;32811;52.382;5.270;2022-08-21T00:16:29;101724.94;;;13.91;100.00
47054;BME280;32811;52.382;5.270;2022-08-21T00:18:56;101718.84;;;13.85;100.00
47054;BME280;32811;52.382;5.270;2022-08-21T00:21:22;101714.47;;;13.79;100.00
47054;BME280;32811;52.382;5.270;2022-08-21T00:23:49;101713.63;;;13.80;100.00
47054;BME280;32811;52.382;5.270;2022-08-21T00:26:15;101717.09;;;13.81;100.00
47054;BME280;32811;52.382;5.270;2022-08-21T00:28:42;101719.69;;;13.81;100.00
47054;BME280;32811;52.382;5.270;2022-08-21T00:31:09;101715.34;;;13.78;100.00
47054;BME280;32811;52.382;5.270;2022-08-21T00:33:36;101699.75;;;13.74;100.00
47054;BME280;32811;52.382;5.270;2022-08-21T00:36:02;101703.22;;;13.74;100.00
47054;BME280;32811;52.382;5.270;2022-08-21T00:38:29;101701.44;;;13.68;100.00
47054;BME280;32811;52.382;5.270;2022-08-21T00:40:59;101710.13;;;13.72;100.00
47054;BME280;32811;52.382;5.270;2022-08-21T00:43:45;101708.38;;;13.68;100.00
47054;BME280;32811;52.382;5.270;2022-08-21T00:46:12;101704.03;;;13.68;100.00
47054;BME280;32811;52.382;5.270;2022-08-21T00:48:39;101710.06;;;13.66;100.00
47054;BME280;32811;52.382;5.270;2022-08-21T00:51:09;101703.16;;;13.65;100.00
47054;BME280;32811;52.382;5.270;2022-08-21T00:53:39;101705.75;;;13.63;100.00
47054;BME280;32811;52.382;5.270;2022-08-21T00:56:09;101702.28;;;13.63;100.00
47054;BME280;32811;52.382;5.270;2022-08-21T00:58:39;101707.47;;;13.61;100.00
47054;BME280;32811;52.382;5.270;2022-08-21T01:01:09;101703.97;;;13.59;100.00
47054;BME280;32811;52.382;5.270;2022-08-21T01:03:36;101717.00;;;13.62;100.00
47054;BME280;32811;52.382;5.270;2022-08-21T01:06:09;101713.53;;;13.60;100.00
47054;BME280;32811;52.382;5.270;2022-08-21T01:08:36;101720.44;;;13.60;100.00
47054;BME280;32811;52.382;5.270;2022-08-21T01:11:11;101708.31;;;13.56;100.00
47054;BME280;32811;52.382;5.270;2022-08-21T01:13:39;101704.84;;;13.54;100.00
47054;BME280;32811;52.382;5.270;2022-08-21T01:16:14;101715.22;;;13.57;100.00
47054;BME280;32811;52.382;5.270;2022-08-21T01:18:42;101718.69;;;13.56;100.00
47054;BME280;32811;52.382;5.270;2022-08-21T01:21:15;101721.25;;;13.54;100.00
47054;BME280;32811;52.382;5.270;2022-08-21T01:23:47;101719.53;;;13.55;100.00
47054;BME280;32811;52.382;5.270;2022-08-21T01:26:17;101703.06;;;13.45;100.00
47054;BME280;32811;52.382;5.270;2022-08-21T01:28:49;101715.16;;;13.50;100.00
47054;BME280;32811;52.382;5.270;2022-08-21T01:34:09;101696.13;;;13.45;100.00
47054;BME280;32811;52.382;5.270;2022-08-21T01:36:36;101704.78;;;13.47;100.00
47054;BME280;32811;52.382;5.270;2022-08-21T01:39:03;101701.31;;;13.42;100.00
47054;BME280;32811;52.382;5.270;2022-08-21T01:41:30;101700.44;;;13.42;100.00
47054;BME280;32811;52.382;5.270;2022-08-21T01:43:57;101714.31;;;13.47;100.00
47054;BME280;32811;52.382;5.270;2022-08-21T01:46:23;101709.09;;;13.42;100.00
47054;BME280;32811;52.382;5.270;2022-08-21T01:48:50;101708.22;;;13.42;100.00
47054;BME280;32811;52.382;5.270;2022-08-21T01:51:17;101705.56;;;13.37;100.00
47054;BME280;32811;52.382;5.270;2022-08-21T01:53:43;101708.22;;;13.42;100.00
47054;BME280;32811;52.382;5.270;2022-08-21T01:56:12;101694.34;;;13.37;100.00
47054;BME280;32811;52.382;5.270;2022-08-21T01:58:41;101701.28;;;13.38;100.00
47054;BME280;32811;52.382;5.270;2022-08-21T02:01:09;101690.00;;;13.37;100.00
47054;BME280;32811;52.382;5.270;2022-08-21T02:03:36;101693.47;;;13.36;100.00
47054;BME280;32811;52.382;5.270;2022-08-21T02:06:05;101690.84;;;13.30;100.00
47054;BME280;32811;52.382;5.270;2022-08-21T02:08:32;101687.38;;;13.29;100.00
47054;BME280;32811;52.382;5.270;2022-08-21T02:10:59;101682.19;;;13.28;100.00
47054;BME280;32811;52.382;5.270;2022-08-21T02:13:26;101683.06;;;13.28;100.00
47054;BME280;32811;52.382;5.270;2022-08-21T02:15:53;101681.25;;;13.26;100.00
47054;BME280;32811;52.382;5.270;2022-08-21T02:18:19;101685.59;;;13.27;100.00
47054;BME280;32811;52.382;5.270;2022-08-21T02:20:48;101677.81;;;13.24;100.00
47054;BME280;32811;52.382;5.270;2022-08-21T02:23:23;101668.28;;;13.23;100.00
47054;BME280;32811;52.382;5.270;2022-08-21T02:25:52;101672.56;;;13.19;100.00
47054;BME280;32811;52.382;5.270;2022-08-21T02:28:18;101669.13;;;13.19;100.00
47054;BME280;32811;52.382;5.270;2022-08-21T02:30:47;101674.31;;;13.19;100.00
47054;BME280;32811;52.382;5.270;2022-08-21T02:33:14;101669.97;;;13.16;100.00
47054;BME280;32811;52.382;5.270;2022-08-21T02:35:43;101672.59;;;13.18;100.00
47054;BME280;32811;52.382;5.270;2022-08-21T02:38:14;101673.44;;;13.17;100.00
47054;BME280;32811;52.382;5.270;2022-08-21T02:40:43;101666.47;;;13.13;100.00
47054;BME280;32811;52.382;5.270;2022-08-21T02:43:14;101670.84;;;13.15;100.00
47054;BME280;32811;52.382;5.270;2022-08-21T02:45:42;101674.28;;;13.14;100.00
47054;BME280;32811;52.382;5.270;2022-08-21T02:48:11;101663.91;;;13.14;100.00
47054;BME280;32811;52.382;5.270;2022-08-21T02:50:47;101664.78;;;13.13;100.00
47054;BME280;32811;52.382;5.270;2022-08-21T02:53:15;101663.88;;;13.09;100.00
47054;BME280;32811;52.382;5.270;2022-08-21T02:55:47;101666.47;;;13.06;100.00
47054;BME280;32811;52.382;5.270;2022-08-21T02:58:16;101663.84;;;13.05;100.00
47054;BME280;32811;52.382;5.270;2022-08-21T03:00:44;101658.59;;;12.96;100.00
47054;BME280;32811;52.382;5.270;2022-08-21T03:03:11;101661.22;;;13.00;100.00
47054;BME280;32811;52.382;5.270;2022-08-21T03:05:38;101651.72;;;12.98;100.00
47054;BME280;32811;52.382;5.270;2022-08-21T03:08:07;101649.97;;;12.95;100.00
47054;BME280;32811;52.382;5.270;2022-08-21T03:10:42;101657.78;;;13.00;100.00
47054;BME280;32811;52.382;5.270;2022-08-21T03:13:10;101651.72;;;13.01;100.00
47054;BME280;32811;52.382;5.270;2022-08-21T03:15:37;101650.84;;;13.00;100.00
47054;BME280;32811;52.382;5.270;2022-08-21T03:18:04;101646.56;;;13.02;100.00
47054;BME280;32811;52.382;5.270;2022-08-21T03:20:32;101648.28;;;13.03;100.00
47054;BME280;32811;52.382;5.270;2022-08-21T03:23:00;101648.28;;;13.03;100.00
47054;BME280;32811;52.382;5.270;2022-08-21T03:25:28;101643.06;;;12.99;100.00
47054;BME280;32811;52.382;5.270;2022-08-21T03:28:09;101637.03;;;12.98;100.00
47054;BME280;32811;52.382;5.270;2022-08-21T03:30:42;101642.22;;;13.01;100.00
47054;BME280;32811;52.382;5.270;2022-08-21T03:33:10;101637.03;;;12.98;100.00
47054;BME280;32811;52.382;5.270;2022-08-21T03:35:42;101640.50;;;13.00;100.00
47054;BME280;32811;52.382;5.270;2022-08-21T03:38:09;101638.72;;;12.93;100.00
47054;BME280;32811;52.382;5.270;2022-08-21T03:40:36;101631.81;;;12.94;100.00
47054;BME280;32811;52.382;5.270;2022-08-21T03:43:02;101641.28;;;12.95;100.00
47054;BME280;32811;52.382;5.270;2022-08-21T03:45:29;101629.19;;;12.91;100.00
47054;BME280;32811;52.382;5.270;2022-08-21T03:48:02;101633.50;;;12.90;100.00
47054;BME280;32811;52.382;5.270;2022-08-21T03:50:32;101609.22;;;12.79;100.00
47054;BME280;32811;52.382;5.270;2022-08-21T03:53:01;101622.22;;;12.83;100.00
47054;BME280;32811;52.382;5.270;2022-08-21T03:55:28;101626.56;;;12.86;100.00
47054;BME280;32811;52.382;5.270;2022-08-21T03:57:55;101636.91;;;12.84;100.00
47054;BME280;32811;52.382;5.270;2022-08-21T04:00:22;101621.34;;;12.80;100.00
47054;BME280;32811;52.382;5.270;2022-08-21T04:02:49;101616.97;;;12.74;100.00
47054;BME280;32811;52.382;5.270;2022-08-21T04:05:18;101622.13;;;12.71;100.00
47054;BME280;32811;52.382;5.270;2022-08-21T04:08:02;101620.41;;;12.72;100.00
47054;BME280;32811;52.382;5.270;2022-08-21T04:10:31;101627.34;;;12.76;100.00
47054;BME280;32811;52.382;5.270;2022-08-21T04:12:58;101614.34;;;12.70;100.00
47054;BME280;32811;52.382;5.270;2022-08-21T04:15:26;101622.13;;;12.71;100.00
47054;BME280;32811;52.382;5.270;2022-08-21T04:17:53;101619.56;;;12.73;100.00
47054;BME280;32811;52.382;5.270;2022-08-21T04:20:20;101629.06;;;12.74;100.00
47054;BME280;32811;52.382;5.270;2022-08-21T04:22:48;101622.13;;;12.71;100.00
47054;BME280;32811;52.382;5.270;2022-08-21T04:25:20;101622.09;;;12.68;100.00
47054;BME280;32811;52.382;5.270;2022-08-21T04:27:47;101626.41;;;12.66;100.00
47054;BME280;32811;52.382;5.270;2022-08-21T04:30:14;101635.06;;;12.70;100.00
47054;BME280;32811;52.382;5.270;2022-08-21T04:32:43;101629.88;;;12.66;100.00
47054;BME280;32811;52.382;5.270;2022-08-21T04:35:11;101641.97;;;12.69;100.00
47054;BME280;32811;52.382;5.270;2022-08-21T04:37:37;101634.16;;;12.64;100.00
47054;BME280;32811;52.382;5.270;2022-08-21T04:40:09;101637.63;;;12.68;100.00
47054;BME280;32811;52.382;5.270;2022-08-21T04:42:47;101644.59;;;12.71;100.00
47054;BME280;32811;52.382;5.270;2022-08-21T04:45:36;101639.34;;;12.67;100.00
47054;BME280;32811;52.382;5.270;2022-08-21T04:48:05;101642.84;;;12.71;100.00
47054;BME280;32811;52.382;5.270;2022-08-21T04:53:54;101642.88;;;12.73;100.00
47054;BME280;32811;52.382;5.270;2022-08-21T04:56:25;101648.09;;;12.79;100.00
47054;BME280;32811;52.382;5.270;2022-08-21T04:58:54;101642.06;;;12.81;100.00
47054;BME280;32811;52.382;5.270;2022-08-21T05:01:27;101645.53;;;12.80;100.00
47054;BME280;32811;52.382;5.270;2022-08-21T05:03:56;101659.44;;;12.93;100.00
47054;BME280;32811;52.382;5.270;2022-08-21T05:06:25;101643.06;;;12.97;100.00
47054;BME280;32811;52.382;5.270;2022-08-21T05:08:54;101643.91;;;12.99;100.00
47054;BME280;32811;52.382;5.270;2022-08-21T05:11:27;101651.78;;;13.10;100.00
47054;BME280;32811;52.382;5.270;2022-08-21T05:13:54;101646.63;;;13.15;100.00
47054;BME280;32811;52.382;5.270;2022-08-21T05:16:22;101654.50;;;13.24;100.00
47054;BME280;32811;52.382;5.270;2022-08-21T05:19:06;101642.47;;;13.32;100.00
47054;BME280;32811;52.382;5.270;2022-08-21T05:21:34;101648.53;;;13.39;100.00
47054;BME280;32811;52.382;5.270;2022-08-21T05:24:01;101646.88;;;13.47;100.00
47054;BME280;32811;52.382;5.270;2022-08-21T05:26:28;101651.25;;;13.62;100.00
47054;BME280;32811;52.382;5.270;2022-08-21T05:28:56;101647.00;;;13.75;100.00
47054;BME280;32811;52.382;5.270;2022-08-21T05:31:23;101656.59;;;13.99;100.00
47054;BME280;32811;52.382;5.270;2022-08-21T05:33:50;101661.84;;;14.17;100.00
47054;BME280;32811;52.382;5.270;2022-08-21T05:36:18;101654.97;;;14.22;100.00
47054;BME280;32811;52.382;5.270;2022-08-21T05:38:45;101661.91;;;14.43;100.00
47054;BME280;32811;52.382;5.270;2022-08-21T05:41:12;101664.56;;;14.71;100.00
47054;BME280;32811;52.382;5.270;2022-08-21T05:43:38;101649.84;;;15.05;100.00
47054;BME280;32811;52.382;5.270;2022-08-21T05:46:07;101649.75;;;15.42;100.00
47054;BME280;32811;52.382;5.270;2022-08-21T05:48:34;101665.25;;;15.90;100.00
47054;BME280;32811;52.382;5.270;2022-08-21T05:51:06;101653.72;;;16.31;100.00
47054;BME280;32811;52.382;5.270;2022-08-21T05:53:33;101660.47;;;16.64;100.00
47054;BME280;32811;52.382;5.270;2022-08-21T05:55:59;101655.84;;;17.00;100.00
47054;BME280;32811;52.382;5.270;2022-08-21T05:58:26;101659.81;;;17.39;100.00
47054;BME280;32811;52.382;5.270;2022-08-21T06:00:53;101651.66;;;17.67;100.00
47054;BME280;32811;52.382;5.270;2022-08-21T06:03:23;101648.13;;;17.73;100.00
47054;BME280;32811;52.382;5.270;2022-08-21T06:05:50;101650.41;;;17.99;100.00
47054;BME280;32811;52.382;5.270;2022-08-21T06:08:17;101645.94;;;18.09;100.00
47054;BME280;32811;52.382;5.270;2022-08-21T06:10:45;101641.22;;;18.34;100.00
47054;BME280;32811;52.382;5.270;2022-08-21T06:13:13;101634.88;;;18.49;100.00
47054;BME280;32811;52.382;5.270;2022-08-21T06:15:40;101646.75;;;18.70;100.00
47054;BME280;32811;52.382;5.270;2022-08-21T06:18:07;101645.69;;;18.81;100.00
47054;BME280;32811;52.382;5.270;2022-08-21T06:20:34;101649.34;;;18.71;100.00
47054;BME280;32811;52.382;5.270;2022-08-21T06:23:01;101636.91;;;18.87;100.00
47054;BME280;32811;52.382;5.270;2022-08-21T06:25:29;101642.66;;;19.06;100.00
47054;BME280;32811;52.382;5.270;2022-08-21T06:28:05;101641.44;;;19.24;100.00
47054;BME280;32811;52.382;5.270;2022-08-21T06:30:32;101647.59;;;19.21;100.00
47054;BME280;32811;52.382;5.270;2022-08-21T06:32:59;101645.75;;;19.26;100.00
47054;BME280;32811;52.382;5.270;2022-08-21T06:35:26;101640.59;;;19.23;100.00
47054;BME280;32811;52.382;5.270;2022-08-21T06:37:58;101636.69;;;19.44;100.00
47054;BME280;32811;52.382;5.270;2022-08-21T06:40:28;101646.34;;;19.42;100.00
47054;BME280;32811;52.382;5.270;2022-08-21T06:43:11;101646.03;;;19.58;100.00
47054;BME280;32811;52.382;5.270;2022-08-21T06:45:41;101651.91;;;19.70;100.00
47054;BME280;32811;52.382;5.270;2022-08-21T06:48:07;101653.66;;;19.72;100.00
47054;BME280;32811;52.382;5.270;2022-08-21T06:50:34;101643.94;;;19.77;100.00
47054;BME280;32811;52.382;5.270;2022-08-21T06:53:10;101642.97;;;19.81;100.00
47054;BME280;32811;52.382;5.270;2022-08-21T06:55:38;101649.41;;;20.06;100.00
47054;BME280;32811;52.382;5.270;2022-08-21T06:58:05;101648.94;;;20.28;100.00
47054;BME280;32811;52.382;5.270;2022-08-21T07:00:32;101636.50;;;20.36;100.00
47054;BME280;32811;52.382;5.270;2022-08-21T07:03:00;101649.16;;;20.17;100.00
47054;BME280;32811;52.382;5.270;2022-08-21T07:05:28;101640.69;;;20.43;100.00
47054;BME280;32811;52.382;5.270;2022-08-21T07:07:56;101640.44;;;20.17;100.00
47054;BME280;32811;52.382;5.270;2022-08-21T07:10:25;101644.66;;;20.22;100.00
47054;BME280;32811;52.382;5.270;2022-08-21T07:12:53;101645.22;;;20.37;100.00
47054;BME280;32811;52.382;5.270;2022-08-21T07:15:27;101650.63;;;20.29;100.00
47054;BME280;32811;52.382;5.270;2022-08-21T07:17:55;101645.41;;;20.66;100.00
47054;BME280;32811;52.382;5.270;2022-08-21T07:20:23;101644.19;;;20.80;100.00
47054;BME280;32811;52.382;5.270;2022-08-21T07:22:50;101629.88;;;20.93;100.00
47054;BME280;32811;52.382;5.270;2022-08-21T07:25:17;101639.28;;;21.00;100.00
47054;BME280;32811;52.382;5.270;2022-08-21T07:27:43;101644.13;;;21.15;100.00
47054;BME280;32811;52.382;5.270;2022-08-21T07:30:10;101644.03;;;21.19;100.00
47054;BME280;32811;52.382;5.270;2022-08-21T07:32:37;101640.00;;;21.07;100.00
47054;BME280;32811;52.382;5.270;2022-08-21T07:35:04;101634.47;;;21.18;100.00
47054;BME280;32811;52.382;5.270;2022-08-21T07:37:30;101638.03;;;21.15;100.00
47054;BME280;32811;52.382;5.270;2022-08-21T07:39:57;101641.75;;;21.39;100.00
47054;BME280;32811;52.382;5.270;2022-08-21T07:42:24;101639.84;;;21.46;100.00
47054;BME280;32811;52.382;5.270;2022-08-21T07:44:50;101626.84;;;21.40;100.00
47054;BME280;32811;52.382;5.270;2022-08-21T07:47:21;101644.84;;;21.55;100.00
47054;BME280;32811;52.382;5.270;2022-08-21T07:50:10;101638.72;;;21.54;100.00
47054;BME280;32811;52.382;5.270;2022-08-21T07:52:38;101645.81;;;21.51;100.00
47054;BME280;32811;52.382;5.270;2022-08-21T07:55:06;101645.00;;;21.79;100.00
47054;BME280;32811;52.382;5.270;2022-08-21T07:57:33;101637.06;;;21.82;100.00
47054;BME280;32811;52.382;5.270;2022-08-21T08:00:00;101628.25;;;21.83;100.00
47054;BME280;32811;52.382;5.270;2022-08-21T08:02:28;101644.50;;;21.97;100.00
47054;BME280;32811;52.382;5.270;2022-08-21T08:04:59;101640.25;;;21.91;100.00
47054;BME280;32811;52.382;5.270;2022-08-21T08:07:27;101644.09;;;22.09;100.00
47054;BME280;32811;52.382;5.270;2022-08-21T08:09:53;101619.34;;;21.88;100.00
47054;BME280;32811;52.382;5.270;2022-08-21T08:12:20;101634.47;;;21.80;100.00
47054;BME280;32811;52.382;5.270;2022-08-21T08:14:47;101633.63;;;22.08;100.00
47054;BME280;32811;52.382;5.270;2022-08-21T08:17:14;101630.00;;;22.12;100.00
47054;BME280;32811;52.382;5.270;2022-08-21T08:19:40;101632.72;;;22.37;100.00
47054;BME280;32811;52.382;5.270;2022-08-21T08:22:18;101628.41;;;22.63;100.00
47054;BME280;32811;52.382;5.270;2022-08-21T08:24:51;101633.28;;;22.48;100.00
47054;BME280;32811;52.382;5.270;2022-08-21T08:27:18;101633.00;;;22.56;100.00
47054;BME280;32811;52.382;5.270;2022-08-21T08:29:44;101631.81;;;22.66;100.00
47054;BME280;32811;52.382;5.270;2022-08-21T08:32:11;101629.75;;;22.48;100.00
47054;BME280;32811;52.382;5.270;2022-08-21T08:34:38;101629.88;;;22.45;100.00
47054;BME280;32811;52.382;5.270;2022-08-21T08:37:08;101633.13;;;22.53;100.00
47054;BME280;32811;52.382;5.270;2022-08-21T08:45:07;101630.13;;;23.15;100.00
47054;BME280;32811;52.382;5.270;2022-08-21T08:47:38;101628.06;;;23.24;100.00
47054;BME280;32811;52.382;5.270;2022-08-21T08:50:07;101636.50;;;23.33;100.00
47054;BME280;32811;52.382;5.270;2022-08-21T08:52:43;101630.91;;;23.42;100.00
47054;BME280;32811;52.382;5.270;2022-08-21T08:55:15;101627.97;;;23.27;100.00
47054;BME280;32811;52.382;5.270;2022-08-21T08:57:45;101621.59;;;23.32;100.00
47054;BME280;32811;52.382;5.270;2022-08-21T09:00:18;101620.75;;;23.32;100.00
47054;BME280;32811;52.382;5.270;2022-08-21T09:02:46;101625.97;;;23.33;100.00
47054;BME280;32811;52.382;5.270;2022-08-21T09:05:25;101630.19;;;23.14;100.00
47054;BME280;32811;52.382;5.270;2022-08-21T09:08:09;101630.41;;;22.54;100.00
47054;BME280;32811;52.382;5.270;2022-08-21T09:13:31;101617.09;;;22.04;100.00
47054;BME280;32811;52.382;5.270;2022-08-21T09:16:40;101620.88;;;21.95;100.00
47054;BME280;32811;52.382;5.270;2022-08-21T09:22:39;101626.25;;;22.19;100.00
47054;BME280;32811;52.382;5.270;2022-08-21T09:25:28;101630.63;;;22.22;100.00
47054;BME280;32811;52.382;5.270;2022-08-21T09:27:57;101611.13;;;22.80;100.00
47054;BME280;32811;52.382;5.270;2022-08-21T09:30:28;101620.16;;;23.71;100.00
47054;BME280;32811;52.382;5.270;2022-08-21T09:32:56;101624.53;;;23.48;100.00
47054;BME280;32811;52.382;5.270;2022-08-21T09:35:24;101624.53;;;23.95;100.00
47054;BME280;32811;52.382;5.270;2022-08-21T09:37:55;101626.91;;;23.07;100.00
47054;BME280;32811;52.382;5.270;2022-08-21T09:40:41;101626.25;;;23.00;100.00
47054;BME280;32811;52.382;5.270;2022-08-21T09:45:38;101622.44;;;23.09;100.00
47054;BME280;32811;52.382;5.270;2022-08-21T09:48:09;101625.34;;;23.27;100.00
47054;BME280;32811;52.382;5.270;2022-08-21T09:50:37;101628.03;;;22.73;100.00
47054;BME280;32811;52.382;5.270;2022-08-21T09:53:04;101627.53;;;22.35;100.00
47054;BME280;32811;52.382;5.270;2022-08-21T09:55:33;101622.63;;;22.51;100.00
47054;BME280;32811;52.382;5.270;2022-08-21T09:58:20;101624.91;;;22.62;100.00
47054;BME280;32811;52.382;5.270;2022-08-21T10:00:58;101621.81;;;22.49;100.00
47054;BME280;32811;52.382;5.270;2022-08-21T10:03:26;101617.34;;;23.05;100.00
47054;BME280;32811;52.382;5.270;2022-08-21T10:08:23;101620.69;;;23.57;100.00
47054;BME280;32811;52.382;5.270;2022-08-21T10:10:55;101620.75;;;23.55;100.00
47054;BME280;32811;52.382;5.270;2022-08-21T10:13:30;101621.22;;;23.43;97.75
47054;BME280;32811;52.382;5.270;2022-08-21T10:16:28;101625.38;;;23.25;99.49
47054;BME280;32811;52.382;5.270;2022-08-21T10:19:39;101618.53;;;23.19;99.52
47054;BME280;32811;52.382;5.270;2022-08-21T10:25:02;101628.03;;;23.72;96.32
47054;BME280;32811;52.382;5.270;2022-08-21T10:30:40;101620.84;;;24.21;92.77
47054;BME280;32811;52.382;5.270;2022-08-21T10:33:24;101608.94;;;24.33;91.33
47054;BME280;32811;52.382;5.270;2022-08-21T10:36:13;101616.75;;;24.58;92.14
47054;BME280;32811;52.382;5.270;2022-08-21T10:47:08;101610.25;;;24.45;88.45
47054;BME280;32811;52.382;5.270;2022-08-21T10:50:08;101606.91;;;24.62;90.06
47054;BME280;32811;52.382;5.270;2022-08-21T10:55:26;101603.13;;;24.47;88.70
47054;BME280;32811;52.382;5.270;2022-08-21T11:00:28;101595.22;;;24.25;87.83
47054;BME280;32811;52.382;5.270;2022-08-21T11:03:11;101602.44;;;24.20;88.35
47054;BME280;32811;52.382;5.270;2022-08-21T11:05:49;101596.22;;;24.22;85.75
47054;BME280;32811;52.382;5.270;2022-08-21T11:08:31;101587.13;;;24.30;86.46
47054;BME280;32811;52.382;5.270;2022-08-21T11:11:07;101597.75;;;24.71;85.92
47054;BME280;32811;52.382;5.270;2022-08-21T11:13:43;101582.63;;;24.74;84.29
47054;BME280;32811;52.382;5.270;2022-08-21T11:19:30;101591.34;;;25.16;79.20
47054;BME280;32811;52.382;5.270;2022-08-21T11:25:03;101584.72;;;25.46;79.88
47054;BME280;32811;52.382;5.270;2022-08-21T11:27:37;101591.06;;;25.42;80.59
47054;BME280;32811;52.382;5.270;2022-08-21T11:30:06;101593.06;;;25.37;78.41
47054;BME280;32811;52.382;5.270;2022-08-21T11:33:07;101591.19;;;25.20;78.40
47054;BME280;32811;52.382;5.270;2022-08-21T11:36:07;101602.94;;;24.52;81.57
47054;BME280;32811;52.382;5.270;2022-08-21T11:38:40;101604.59;;;24.10;80.85
47054;BME280;32811;52.382;5.270;2022-08-21T11:46:38;101600.69;;;24.20;82.29
47054;BME280;32811;52.382;5.270;2022-08-21T11:52:09;101600.22;;;24.74;79.15
47054;BME280;32811;52.382;5.270;2022-08-21T11:57:31;101619.88;;;24.24;79.75
47054;BME280;32811;52.382;5.270;2022-08-21T12:00:13;101612.88;;;23.79;79.94
47054;BME280;32811;52.382;5.270;2022-08-21T12:02:46;101616.94;;;23.88;80.94
47054;BME280;32811;52.382;5.270;2022-08-21T12:05:29;101620.63;;;24.28;80.47
47054;BME280;32811;52.382;5.270;2022-08-21T12:08:05;101609.94;;;24.09;79.75
47054;BME280;32811;52.382;5.270;2022-08-21T12:10:39;101615.22;;;24.09;81.68
47054;BME280;32811;52.382;5.270;2022-08-21T12:13:11;101603.69;;;23.89;83.10
47054;BME280;32811;52.382;5.270;2022-08-21T12:16:13;101616.63;;;23.95;82.93
47054;BME280;32811;52.382;5.270;2022-08-21T12:18:42;101621.34;;;23.87;84.00
47054;BME280;32811;52.382;5.270;2022-08-21T12:21:25;101611.72;;;24.30;76.38
47054;BME280;32811;52.382;5.270;2022-08-21T12:24:18;101606.09;;;24.38;78.95
47054;BME280;32811;52.382;5.270;2022-08-21T12:29:45;101621.78;;;24.20;83.07
47054;BME280;32811;52.382;5.270;2022-08-21T12:35:02;101625.75;;;24.09;82.58
47054;BME280;32811;52.382;5.270;2022-08-21T12:37:40;101623.31;;;24.04;82.99
47054;BME280;32811;52.382;5.270;2022-08-21T12:40:22;101626.75;;;24.06;82.44
47054;BME280;32811;52.382;5.270;2022-08-21T12:42:55;101633.50;;;23.91;83.11
47054;BME280;32811;52.382;5.270;2022-08-21T12:45:37;101629.25;;;23.87;81.88
47054;BME280;32811;52.382;5.270;2022-08-21T12:48:10;101632.09;;;23.57;82.40
47054;BME280;32811;52.382;5.270;2022-08-21T12:50:46;101627.72;;;23.33;84.63
47054;BME280;32811;52.382;5.270;2022-08-21T12:53:44;101634.44;;;23.18;87.66
47054;BME280;32811;52.382;5.270;2022-08-21T12:56:15;101638.34;;;23.31;84.10
47054;BME280;32811;52.382;5.270;2022-08-21T12:58:48;101648.13;;;23.76;82.65
47054;BME280;32811;52.382;5.270;2022-08-21T13:01:20;101644.28;;;23.85;79.65
47054;BME280;32811;52.382;5.270;2022-08-21T13:03:53;101642.69;;;24.03;81.28
47054;BME280;32811;52.382;5.270;2022-08-21T13:06:45;101637.00;;;24.14;80.51
47054;BME280;32811;52.382;5.270;2022-08-21T13:09:18;101646.84;;;24.09;80.01
47054;BME280;32811;52.382;5.270;2022-08-21T13:11:47;101644.38;;;24.28;78.40
47054;BME280;32811;52.382;5.270;2022-08-21T13:14:32;101640.94;;;24.26;76.59
47054;BME280;32811;52.382;5.270;2022-08-21T13:17:05;101623.63;;;24.40;76.01
47054;BME280;32811;52.382;5.270;2022-08-21T13:19:33;101642.81;;;24.00;77.92
47054;BME280;32811;52.382;5.270;2022-08-21T13:22:01;101647.13;;;23.79;78.53
47054;BME280;32811;52.382;5.270;2022-08-21T13:24:49;101640.50;;;23.44;78.21
47054;BME280;32811;52.382;5.270;2022-08-21T13:27:30;101638.25;;;23.09;83.67
47054;BME280;32811;52.382;5.270;2022-08-21T13:32:31;101639.22;;;23.07;84.80
47054;BME280;32811;52.382;5.270;2022-08-21T13:35:11;101635.81;;;23.03;85.94
47054;BME280;32811;52.382;5.270;2022-08-21T13:37:40;101639.44;;;23.00;85.32
47054;BME280;32811;52.382;5.270;2022-08-21T13:40:11;101625.94;;;22.83;86.39
47054;BME280;32811;52.382;5.270;2022-08-21T13:42:43;101641.91;;;22.78;86.37
47054;BME280;32811;52.382;5.270;2022-08-21T13:45:36;101637.97;;;22.90;86.10
47054;BME280;32811;52.382;5.270;2022-08-21T13:48:01;101636.34;;;22.86;87.10
47054;BME280;32811;52.382;5.270;2022-08-21T13:50:33;101637.69;;;22.99;87.63
47054;BME280;32811;52.382;5.270;2022-08-21T13:53:21;101637.75;;;23.23;86.02
47054;BME280;32811;52.382;5.270;2022-08-21T13:55:48;101640.97;;;23.31;83.87
47054;BME280;32811;52.382;5.270;2022-08-21T13:58:25;101648.41;;;23.44;80.24
47054;BME280;32811;52.382;5.270;2022-08-21T14:00:54;101639.06;;;23.60;82.19
47054;BME280;32811;52.382;5.270;2022-08-21T14:03:34;101628.59;;;23.57;80.57
47054;BME280;32811;52.382;5.270;2022-08-21T14:06:02;101634.63;;;23.60;77.29
47054;BME280;32811;52.382;5.270;2022-08-21T14:08:33;101631.66;;;23.21;81.52
47054;BME280;32811;52.382;5.270;2022-08-21T14:11:03;101634.44;;;22.91;81.88
47054;BME280;32811;52.382;5.270;2022-08-21T14:13:38;101638.94;;;22.88;82.29